Etusivu
METAR-TAF:

METAR-TAF

Lentoasemat :

Sanderson Field Airport

Shelton, Washington, Yhdysvallat

Leveyspiiri: 47-14-17N, Pituuspiiri: 123-08-27W, korkeus merenpinnasta: 82 m

Tämänhetkinen sää

Tämä raportti tehtiin 55 minuuttia sitten, kello 11.53 UTC
Tuuli 3 kn pohjoisesta
Lämpötila 8°C
Kosteus 93%
Ilmanpaine 1019 hPa
Näkyvyys: 16.1 km
selkeää

METAR: KSHN 291153Z AUTO 36003KT 10SM CLR 08/07 A3008 RMK AO2 SLP186 T00830072 10111 20072 58009

Aika: 05:48 (12:48 UTC)


TAF: puuttuu

Säähavainnot ja -ennusteet yli 4000 lentoasemalta (METAR- ja TAF-raportit).

Käytössä olevat sääasemat on merkitty karttaan keltaisilla ja punaisilla pisteillä.

Aseta hiiri pisteen päälle nähdäksesi sääaseman nimen.

Klikkaa sitten nähdäksesi säähavainnot ja -ennusteet.

Kartan vaihtaminen: klikkaa mustalla rastilla varustettuja vihreitä pisteitä, niin voit zoomata sisään; viivalla varustettua vihreää pistettä, niin voit zoomata ulos tai vihreitä nuolia, niin pääset viereisille kartoille.


METAR-TAF: